createdAt,value
2019-03-24T00:01:25.573Z,7.79
2019-03-24T00:03:53.507Z,7.75
2019-03-24T00:06:21.777Z,7.67
2019-03-24T00:08:49.397Z,7.61
2019-03-24T00:11:16.655Z,7.59
2019-03-24T00:13:43.845Z,7.55
2019-03-24T00:16:13.070Z,7.50
2019-03-24T00:18:42.521Z,7.46
2019-03-24T00:21:09.725Z,7.41
2019-03-24T00:23:44.403Z,7.39
2019-03-24T00:26:14.010Z,7.35
2019-03-24T00:28:41.291Z,7.30
2019-03-24T00:31:08.342Z,7.25
2019-03-24T00:33:41.451Z,7.20
2019-03-24T00:36:08.501Z,7.14
2019-03-24T00:38:35.538Z,7.10
2019-03-24T00:41:02.971Z,7.08
2019-03-24T00:43:30.015Z,7.04
2019-03-24T00:45:57.151Z,7.03
2019-03-24T00:48:24.190Z,6.96
2019-03-24T00:50:52.320Z,6.91
2019-03-24T00:53:19.625Z,6.86
2019-03-24T00:55:46.683Z,6.82
2019-03-24T00:58:13.719Z,6.77
2019-03-24T01:00:40.759Z,6.73
2019-03-24T01:03:07.819Z,6.70
2019-03-24T01:05:34.863Z,6.67
2019-03-24T01:08:01.913Z,6.64
2019-03-24T01:10:29.037Z,6.62
2019-03-24T01:12:56.428Z,6.59
2019-03-24T01:15:23.786Z,6.53
2019-03-24T01:17:50.837Z,6.49
2019-03-24T01:20:17.879Z,6.46
2019-03-24T01:22:44.932Z,6.43
2019-03-24T01:25:12.227Z,6.38
2019-03-24T01:27:39.277Z,6.33
2019-03-24T01:30:06.312Z,6.30
2019-03-24T01:32:33.726Z,6.28
2019-03-24T01:35:00.768Z,6.24
2019-03-24T01:37:28.087Z,6.22
2019-03-24T01:39:55.395Z,6.16
2019-03-24T01:42:22.449Z,6.16
2019-03-24T01:44:49.782Z,6.16
2019-03-24T01:47:17.135Z,6.16
2019-03-24T01:49:44.508Z,6.13
2019-03-24T01:52:11.565Z,6.09
2019-03-24T01:54:38.608Z,6.08
2019-03-24T01:57:05.665Z,6.07
2019-03-24T01:59:32.705Z,6.05
2019-03-24T02:01:59.767Z,6.03
2019-03-24T02:04:27.087Z,6.00
2019-03-24T02:06:54.459Z,5.95
2019-03-24T02:09:21.504Z,5.96
2019-03-24T02:11:50.794Z,5.94
2019-03-24T02:14:17.287Z,5.90
2019-03-24T02:16:44.322Z,5.89
2019-03-24T02:19:11.634Z,5.86
2019-03-24T02:21:38.923Z,5.84
2019-03-24T02:24:06.218Z,5.82
2019-03-24T02:26:33.328Z,5.81
2019-03-24T02:29:00.385Z,5.78
2019-03-24T02:31:27.429Z,5.76
2019-03-24T02:33:54.733Z,5.77
2019-03-24T02:36:22.092Z,5.76
2019-03-24T02:38:49.327Z,5.73
2019-03-24T02:41:16.367Z,5.72
2019-03-24T02:43:43.420Z,5.70
2019-03-24T02:46:23.509Z,5.66
2019-03-24T02:48:39.480Z,5.65
2019-03-24T02:51:06.790Z,5.63
2019-03-24T02:53:33.826Z,5.61
2019-03-24T02:56:00.864Z,5.57
2019-03-24T02:58:28.394Z,5.52
2019-03-24T03:00:55.685Z,5.49
2019-03-24T03:03:23.034Z,5.48
2019-03-24T03:05:50.420Z,5.44
2019-03-24T03:08:17.437Z,5.41
2019-03-24T03:10:44.487Z,5.37
2019-03-24T03:13:11.539Z,5.36
2019-03-24T03:15:38.583Z,5.34
2019-03-24T03:18:05.902Z,5.36
2019-03-24T03:20:32.949Z,5.33
2019-03-24T03:23:00.323Z,5.29
2019-03-24T03:25:27.597Z,5.25
2019-03-24T03:27:54.642Z,5.22
2019-03-24T03:30:21.702Z,5.21
2019-03-24T03:32:49.018Z,5.18
2019-03-24T03:35:16.370Z,5.15
2019-03-24T03:37:43.414Z,5.13
2019-03-24T03:40:10.470Z,5.10
2019-03-24T03:42:37.515Z,5.05
2019-03-24T03:45:04.829Z,5.03
2019-03-24T03:47:32.234Z,4.99
2019-03-24T03:49:59.562Z,4.99
2019-03-24T03:52:26.930Z,4.95
2019-03-24T03:54:53.980Z,4.92
2019-03-24T03:57:21.338Z,4.91
2019-03-24T03:59:48.632Z,4.89
2019-03-24T04:02:16.065Z,4.85
2019-03-24T04:04:43.372Z,4.81
2019-03-24T04:07:10.756Z,4.76
2019-03-24T04:09:37.814Z,4.73
2019-03-24T04:12:04.869Z,4.70
2019-03-24T04:14:32.204Z,4.67
2019-03-24T04:17:07.038Z,4.63
2019-03-24T04:19:28.244Z,4.62
2019-03-24T04:21:55.549Z,4.58
2019-03-24T04:24:22.604Z,4.58
2019-03-24T04:26:49.641Z,4.56
2019-03-24T04:29:17.053Z,4.53
2019-03-24T04:31:44.403Z,4.50
2019-03-24T04:34:11.755Z,4.49
2019-03-24T04:36:39.116Z,4.50
2019-03-24T04:39:06.471Z,4.49
2019-03-24T04:41:33.821Z,4.48
2019-03-24T04:44:00.878Z,4.48
2019-03-24T04:46:28.226Z,4.44
2019-03-24T04:48:55.581Z,4.39
2019-03-24T04:51:23.611Z,4.35
2019-03-24T04:53:51.010Z,4.31
2019-03-24T04:56:18.364Z,4.29
2019-03-24T04:58:45.407Z,4.25
2019-03-24T05:01:12.789Z,4.24
2019-03-24T05:03:39.828Z,4.25
2019-03-24T05:06:07.167Z,4.29
2019-03-24T05:08:34.213Z,4.30
2019-03-24T05:11:01.594Z,4.29
2019-03-24T05:13:28.933Z,4.31
2019-03-24T05:15:56.279Z,4.32
2019-03-24T05:18:23.326Z,4.32
2019-03-24T05:20:50.400Z,4.36
2019-03-24T05:23:17.742Z,4.38
2019-03-24T05:25:44.804Z,4.40
2019-03-24T05:28:11.862Z,4.46
2019-03-24T05:30:40.308Z,4.55
2019-03-24T05:33:07.688Z,4.62
2019-03-24T05:35:35.008Z,4.73
2019-03-24T05:38:03.298Z,4.87
2019-03-24T05:40:30.399Z,5.05
2019-03-24T05:42:58.825Z,5.28
2019-03-24T05:45:26.200Z,5.57
2019-03-24T05:47:53.542Z,5.88
2019-03-24T05:50:20.603Z,6.14
2019-03-24T05:52:47.650Z,6.39
2019-03-24T05:55:15.009Z,6.73
2019-03-24T05:57:42.348Z,7.16
2019-03-24T06:00:09.478Z,7.59
2019-03-24T06:02:36.867Z,8.05
2019-03-24T06:05:04.205Z,8.41
2019-03-24T06:07:31.503Z,8.77
2019-03-24T06:09:58.832Z,9.11
2019-03-24T06:12:26.188Z,9.55
2019-03-24T06:14:53.232Z,9.97
2019-03-24T06:17:20.568Z,10.37
2019-03-24T06:19:47.854Z,10.71
2019-03-24T06:22:15.176Z,11.08
2019-03-24T06:24:42.532Z,11.37
2019-03-24T06:27:09.892Z,11.69
2019-03-24T06:29:37.247Z,12.08
2019-03-24T06:32:04.598Z,12.31
2019-03-24T06:34:31.681Z,12.55
2019-03-24T06:36:58.709Z,12.85
2019-03-24T06:39:26.068Z,13.40
2019-03-24T06:41:53.404Z,13.71
2019-03-24T06:44:20.781Z,13.79
2019-03-24T06:46:48.113Z,14.26
2019-03-24T06:49:15.468Z,14.56
2019-03-24T06:51:42.527Z,14.82
2019-03-24T06:54:09.871Z,14.92
2019-03-24T06:56:36.930Z,15.08
2019-03-24T06:59:04.293Z,15.25
2019-03-24T07:01:31.617Z,15.66
2019-03-24T07:03:58.965Z,15.71
2019-03-24T07:06:26.345Z,15.89
2019-03-24T07:08:53.713Z,16.15
2019-03-24T07:11:21.054Z,16.05
2019-03-24T07:13:48.098Z,16.12
2019-03-24T07:16:15.164Z,16.19
2019-03-24T07:24:01.749Z,16.11
2019-03-24T07:26:34.312Z,16.73
2019-03-24T07:29:02.624Z,17.11
2019-03-24T07:31:30.888Z,17.61
2019-03-24T07:34:01.183Z,17.91
2019-03-24T07:36:29.741Z,17.65
2019-03-24T07:39:02.952Z,18.13
2019-03-24T07:41:31.445Z,18.81
2019-03-24T07:44:01.774Z,19.15
2019-03-24T07:46:30.462Z,19.61
2019-03-24T07:49:05.571Z,20.09
2019-03-24T07:51:37.924Z,19.93
2019-03-24T07:54:06.402Z,19.57
2019-03-24T07:59:11.578Z,19.71
2019-03-24T08:04:31.095Z,19.43
2019-03-24T08:12:26.340Z,20.72
2019-03-24T08:17:43.944Z,20.08
2019-03-24T08:20:13.448Z,19.37
2019-03-24T08:22:45.562Z,19.17
2019-03-24T08:25:13.822Z,19.55
2019-03-24T08:27:44.677Z,20.21
2019-03-24T08:30:21.227Z,20.62
2019-03-24T08:32:48.492Z,20.14
2019-03-24T08:35:15.554Z,20.18
2019-03-24T08:37:46.588Z,20.78
2019-03-24T08:45:43.131Z,20.27
2019-03-24T08:48:15.073Z,20.32
2019-03-24T08:50:50.046Z,20.28
2019-03-24T08:53:18.229Z,20.89
2019-03-24T08:55:55.369Z,21.30
2019-03-24T08:58:22.613Z,20.99
2019-03-24T09:00:56.708Z,20.64
2019-03-24T09:06:05.494Z,19.79
2019-03-24T09:08:36.665Z,19.70
2019-03-24T09:11:17.488Z,20.01
2019-03-24T09:13:44.555Z,20.49
2019-03-24T09:16:11.602Z,21.05
2019-03-24T09:18:39.732Z,21.50
2019-03-24T09:21:06.768Z,21.97
2019-03-24T09:23:34.082Z,22.30
2019-03-24T09:26:01.132Z,22.29
2019-03-24T09:28:28.465Z,22.85
2019-03-24T09:30:55.527Z,23.26
2019-03-24T09:33:22.864Z,22.82
2019-03-24T09:35:50.222Z,22.57
2019-03-24T09:38:17.277Z,23.04
2019-03-24T09:40:44.404Z,23.60
2019-03-24T09:43:11.781Z,24.26
2019-03-24T09:45:39.130Z,23.85
2019-03-24T09:48:06.198Z,23.90
2019-03-24T09:50:33.495Z,24.00
2019-03-24T09:53:00.553Z,23.63
2019-03-24T09:55:27.956Z,23.74
2019-03-24T09:57:55.016Z,24.07
2019-03-24T10:00:22.376Z,24.33
2019-03-24T10:02:49.693Z,24.43
2019-03-24T10:05:17.046Z,24.83
2019-03-24T10:07:44.098Z,25.25
2019-03-24T10:10:11.456Z,25.08
2019-03-24T10:12:38.500Z,24.19
2019-03-24T10:17:40.919Z,23.87
2019-03-24T10:20:08.349Z,24.42
2019-03-24T10:22:35.725Z,24.06
2019-03-24T10:25:02.784Z,23.89
2019-03-24T10:27:29.828Z,24.68
2019-03-24T10:29:57.154Z,25.30
2019-03-24T10:32:24.527Z,25.54
2019-03-24T10:34:51.879Z,26.11
2019-03-24T10:37:19.215Z,26.43
2019-03-24T10:39:46.283Z,26.82
2019-03-24T10:42:13.647Z,26.86
2019-03-24T10:44:40.974Z,27.05
2019-03-24T10:47:08.333Z,27.10
2019-03-24T10:49:35.687Z,27.01
2019-03-24T10:52:02.732Z,26.74
2019-03-24T10:54:29.797Z,26.60
2019-03-24T10:56:57.147Z,26.86
2019-03-24T10:59:24.205Z,26.74
2019-03-24T11:01:51.259Z,26.69
2019-03-24T11:04:18.587Z,26.73
2019-03-24T11:06:46.604Z,27.01
2019-03-24T11:09:14.040Z,27.09
2019-03-24T11:11:41.078Z,27.28
2019-03-24T11:14:08.421Z,27.36
2019-03-24T11:16:35.711Z,27.30
2019-03-24T11:19:03.128Z,27.53
2019-03-24T11:21:30.504Z,27.88
2019-03-24T11:23:57.835Z,28.03
2019-03-24T11:26:25.217Z,27.72
2019-03-24T11:28:52.266Z,28.06
2019-03-24T11:31:20.844Z,28.18
2019-03-24T11:33:48.156Z,28.37
2019-03-24T11:36:15.235Z,28.64
2019-03-24T11:38:42.280Z,28.59
2019-03-24T11:41:09.343Z,28.48
2019-03-24T11:43:36.680Z,28.87
2019-03-24T11:46:05.406Z,29.52
2019-03-24T11:48:33.949Z,30.08
2019-03-24T11:51:01.013Z,29.76
2019-03-24T11:53:28.329Z,29.44
2019-03-24T11:55:55.729Z,29.14
2019-03-24T11:58:22.790Z,29.35
2019-03-24T12:00:50.126Z,29.96
2019-03-24T12:03:17.245Z,30.11
2019-03-24T12:05:44.560Z,29.65
2019-03-24T12:08:11.891Z,28.89
2019-03-24T12:10:38.954Z,28.78
2019-03-24T12:13:06.292Z,28.84
2019-03-24T12:15:33.627Z,29.03
2019-03-24T12:18:00.930Z,29.22
2019-03-24T12:20:29.068Z,29.54
2019-03-24T12:22:56.102Z,30.15
2019-03-24T12:25:23.166Z,30.12
2019-03-24T12:27:50.213Z,29.79
2019-03-24T12:30:17.536Z,29.37
2019-03-24T12:32:44.593Z,28.64
2019-03-24T12:35:11.985Z,27.95
2019-03-24T12:37:39.021Z,27.74
2019-03-24T12:40:06.333Z,27.94
2019-03-24T12:42:33.720Z,28.26
2019-03-24T12:45:01.089Z,27.57
2019-03-24T12:47:28.137Z,28.04
2019-03-24T12:49:55.186Z,28.16
2019-03-24T12:52:22.536Z,28.16
2019-03-24T12:54:49.877Z,28.59
2019-03-24T12:57:17.231Z,28.75
2019-03-24T12:59:44.585Z,28.15
2019-03-24T13:02:11.792Z,27.81
2019-03-24T13:04:39.197Z,28.18
2019-03-24T13:07:06.503Z,27.85
2019-03-24T13:09:33.854Z,28.25
2019-03-24T13:12:00.868Z,28.44
2019-03-24T13:14:30.662Z,28.09
2019-03-24T13:16:57.353Z,27.55
2019-03-24T13:19:40.869Z,26.99
2019-03-24T13:22:14.105Z,26.10
2019-03-24T13:24:50.630Z,24.86
2019-03-24T13:38:16.607Z,20.69
2019-03-24T13:40:50.636Z,20.02
2019-03-24T13:43:17.916Z,19.60
2019-03-24T13:45:57.475Z,18.94
2019-03-24T13:48:24.983Z,18.60
2019-03-24T13:50:52.147Z,18.57
2019-03-24T13:53:22.792Z,18.32
2019-03-24T13:56:01.259Z,18.28
2019-03-24T13:58:28.572Z,18.05
2019-03-24T14:00:55.977Z,17.96
2019-03-24T14:03:23.326Z,17.83
2019-03-24T14:05:50.380Z,17.80
2019-03-24T14:08:17.744Z,17.70
2019-03-24T14:10:45.084Z,17.55
2019-03-24T14:13:12.462Z,17.52
2019-03-24T14:15:39.506Z,17.58
2019-03-24T14:18:06.840Z,17.90
2019-03-24T14:20:42.757Z,17.94
2019-03-24T14:23:03.007Z,17.94
2019-03-24T14:25:31.364Z,17.77
2019-03-24T14:27:58.429Z,17.75
2019-03-24T14:30:25.770Z,17.65
2019-03-24T14:32:53.077Z,17.61
2019-03-24T14:35:20.482Z,17.64
2019-03-24T14:37:47.832Z,17.42
2019-03-24T14:40:14.887Z,17.37
2019-03-24T14:42:42.257Z,17.23
2019-03-24T14:45:09.598Z,17.04
2019-03-24T14:47:36.662Z,16.80
2019-03-24T14:50:03.708Z,16.49
2019-03-24T14:52:30.927Z,16.21
2019-03-24T14:54:58.297Z,16.01
2019-03-24T14:57:25.363Z,15.91
2019-03-24T14:59:52.716Z,15.78
2019-03-24T15:02:20.074Z,15.56
2019-03-24T15:04:47.407Z,15.39
2019-03-24T15:07:14.764Z,15.32
2019-03-24T15:09:42.116Z,15.30
2019-03-24T15:12:09.168Z,15.28
2019-03-24T15:14:36.473Z,15.08
2019-03-24T15:17:03.775Z,14.94
2019-03-24T15:19:32.154Z,14.84
2019-03-24T15:21:59.207Z,14.84
2019-03-24T15:24:26.556Z,14.74
2019-03-24T15:26:53.609Z,14.64
2019-03-24T15:29:20.933Z,14.52
2019-03-24T15:31:48.313Z,14.44
2019-03-24T15:34:15.384Z,14.38
2019-03-24T15:36:42.426Z,14.37
2019-03-24T15:39:09.772Z,14.41
2019-03-24T15:41:37.120Z,14.45
2019-03-24T15:44:04.178Z,14.38
2019-03-24T15:46:31.544Z,14.32
2019-03-24T15:48:58.602Z,14.39
2019-03-24T15:51:25.931Z,14.45
2019-03-24T15:53:53.261Z,14.35
2019-03-24T15:56:20.315Z,13.84
2019-03-24T15:58:47.694Z,13.27
2019-03-24T16:01:14.983Z,13.09
2019-03-24T16:03:42.621Z,13.03
2019-03-24T16:06:09.666Z,13.00
2019-03-24T16:08:37.003Z,12.87
2019-03-24T16:11:04.055Z,12.65
2019-03-24T16:13:31.422Z,12.56
2019-03-24T16:15:58.715Z,12.51
2019-03-24T16:18:25.853Z,12.40
2019-03-24T16:20:53.178Z,12.37
2019-03-24T16:23:20.488Z,12.43
2019-03-24T16:25:47.535Z,12.55
2019-03-24T16:28:14.942Z,12.67
2019-03-24T16:30:41.994Z,12.71
2019-03-24T16:33:09.333Z,12.74
2019-03-24T16:35:36.624Z,12.68
2019-03-24T16:38:03.951Z,12.55
2019-03-24T16:40:31.108Z,12.38
2019-03-24T16:42:58.159Z,12.22
2019-03-24T16:45:25.485Z,12.07
2019-03-24T16:47:52.529Z,12.00
2019-03-24T16:50:19.606Z,12.01
2019-03-24T16:52:46.651Z,11.82
2019-03-24T16:55:13.706Z,11.67
2019-03-24T16:57:41.049Z,11.35
2019-03-24T17:00:08.392Z,11.15
2019-03-24T17:02:35.507Z,11.08
2019-03-24T17:05:02.572Z,11.04
2019-03-24T17:07:29.966Z,11.07
2019-03-24T17:10:00.726Z,11.12
2019-03-24T17:12:28.048Z,11.12
2019-03-24T17:14:55.110Z,11.06
2019-03-24T17:17:22.435Z,11.02
2019-03-24T17:19:49.494Z,11.05
2019-03-24T17:22:16.838Z,11.10
2019-03-24T17:24:43.913Z,11.13
2019-03-24T17:27:10.949Z,11.11
2019-03-24T17:29:38.297Z,11.10
2019-03-24T17:32:05.335Z,10.99
2019-03-24T17:34:32.398Z,10.84
2019-03-24T17:36:59.449Z,10.67
2019-03-24T17:39:26.505Z,10.49
2019-03-24T17:41:53.551Z,10.35
2019-03-24T17:44:20.878Z,10.23
2019-03-24T17:46:48.255Z,10.12
2019-03-24T17:49:15.318Z,10.01
2019-03-24T17:51:42.641Z,9.90
2019-03-24T17:54:09.687Z,9.78
2019-03-24T17:56:36.761Z,9.70
2019-03-24T17:59:03.797Z,9.62
2019-03-24T18:01:31.927Z,9.54
2019-03-24T18:04:00.251Z,9.45
2019-03-24T18:06:27.553Z,9.38
2019-03-24T18:08:55.969Z,9.37
2019-03-24T18:11:24.100Z,9.34
2019-03-24T18:13:51.515Z,9.32
2019-03-24T18:16:18.871Z,9.29
2019-03-24T18:18:45.916Z,9.30
2019-03-24T18:21:12.975Z,9.33
2019-03-24T18:23:40.337Z,9.33
2019-03-24T18:33:55.989Z,9.01
2019-03-24T18:36:23.268Z,8.95
2019-03-24T18:38:50.497Z,8.94
2019-03-24T18:41:17.571Z,8.98
2019-03-24T18:44:01.880Z,8.99
2019-03-24T18:46:31.136Z,9.03
2019-03-24T18:49:08.465Z,9.05
2019-03-24T18:54:12.983Z,9.04
2019-03-24T18:56:40.536Z,9.01
2019-03-24T18:59:09.035Z,8.96
2019-03-24T19:01:41.304Z,8.90
2019-03-24T19:04:10.764Z,8.83
2019-03-24T19:06:38.357Z,8.76
2019-03-24T19:11:59.432Z,8.65
2019-03-24T19:17:11.967Z,8.53
2019-03-24T19:19:39.895Z,8.44
2019-03-24T19:22:10.527Z,8.39
2019-03-24T19:24:38.256Z,8.35
2019-03-24T19:27:05.585Z,8.30
2019-03-24T19:29:35.239Z,8.27
2019-03-24T19:32:03.461Z,8.24
2019-03-24T19:34:31.404Z,8.20
2019-03-24T19:42:19.489Z,8.09
2019-03-24T19:44:46.535Z,8.04
2019-03-24T19:47:14.171Z,8.01
2019-03-24T19:49:45.845Z,7.96
2019-03-24T19:52:17.375Z,7.91
2019-03-24T19:54:45.161Z,7.86
2019-03-24T19:59:55.420Z,7.79
2019-03-24T20:04:58.526Z,7.75
2019-03-24T20:10:12.960Z,7.90
2019-03-24T20:12:42.348Z,7.98
2019-03-24T20:15:10.504Z,8.03
2019-03-24T20:20:12.361Z,8.08
2019-03-24T20:25:14.894Z,8.25
2019-03-24T20:30:23.823Z,8.42
2019-03-24T20:35:28.172Z,8.61
2019-03-24T20:37:55.807Z,8.65
2019-03-24T20:40:32.777Z,8.70
2019-03-24T20:42:59.822Z,8.75
2019-03-24T20:45:27.502Z,8.79
2019-03-24T20:47:54.781Z,8.84
2019-03-24T20:50:22.017Z,8.87
2019-03-24T20:55:34.357Z,8.92
2019-03-24T20:58:01.557Z,8.95
2019-03-24T21:00:32.409Z,8.98
2019-03-24T21:03:03.640Z,8.97
2019-03-24T21:05:49.241Z,8.99
2019-03-24T21:08:16.706Z,9.00
2019-03-24T21:10:43.990Z,8.99
2019-03-24T21:13:15.839Z,8.99
2019-03-24T21:15:55.155Z,9.01
2019-03-24T21:18:27.046Z,9.03
2019-03-24T21:20:55.291Z,9.03
2019-03-24T21:23:29.762Z,9.03
2019-03-24T21:25:56.865Z,9.06
2019-03-24T21:28:23.930Z,9.06
2019-03-24T21:30:50.969Z,9.05
2019-03-24T21:33:18.287Z,9.04
2019-03-24T21:35:45.760Z,9.03
2019-03-24T21:38:13.099Z,9.00
2019-03-24T21:40:40.139Z,9.00
2019-03-24T21:43:07.506Z,8.99
2019-03-24T21:45:34.860Z,8.96
2019-03-24T21:48:01.919Z,8.93
2019-03-24T21:50:28.968Z,8.95
2019-03-24T21:52:56.306Z,8.93
2019-03-24T21:55:23.354Z,8.93
2019-03-24T21:57:57.383Z,8.95
2019-03-24T22:00:20.124Z,8.93
2019-03-24T22:02:47.595Z,8.91
2019-03-24T22:05:14.929Z,8.87
2019-03-24T22:07:42.056Z,8.83
2019-03-24T22:10:09.435Z,8.81
2019-03-24T22:12:36.802Z,8.79
2019-03-24T22:15:03.848Z,8.76
2019-03-24T22:17:30.905Z,8.75
2019-03-24T22:19:58.190Z,8.72
2019-03-24T22:22:25.594Z,8.71
2019-03-24T22:24:53.364Z,8.73
2019-03-24T22:27:20.737Z,8.72
2019-03-24T22:29:47.792Z,8.70
2019-03-24T22:32:14.837Z,8.67
2019-03-24T22:34:41.891Z,8.66
2019-03-24T22:37:15.858Z,8.66
2019-03-24T22:39:38.227Z,8.62
2019-03-24T22:42:05.510Z,8.59
2019-03-24T22:44:32.842Z,8.57
2019-03-24T22:47:00.179Z,8.52
2019-03-24T22:49:27.541Z,8.51
2019-03-24T22:52:06.578Z,8.52
2019-03-24T22:54:23.974Z,8.51
2019-03-24T22:56:51.113Z,8.51
2019-03-24T22:59:18.154Z,8.49
2019-03-24T23:01:45.526Z,8.48
2019-03-24T23:04:12.889Z,8.49
2019-03-24T23:06:40.241Z,8.48
2019-03-24T23:09:07.617Z,8.46
2019-03-24T23:11:36.116Z,8.42
2019-03-24T23:14:03.450Z,8.37
2019-03-24T23:16:30.490Z,8.35
2019-03-24T23:18:57.837Z,8.34
2019-03-24T23:21:25.193Z,8.34
2019-03-24T23:23:52.500Z,8.29
2019-03-24T23:26:19.539Z,8.29
2019-03-24T23:28:46.949Z,8.29
2019-03-24T23:31:14.305Z,8.27
2019-03-24T23:33:41.675Z,8.25
2019-03-24T23:36:08.723Z,8.23
2019-03-24T23:38:35.780Z,8.24
2019-03-24T23:41:02.895Z,8.23
2019-03-24T23:43:30.258Z,8.21
2019-03-24T23:45:57.366Z,8.21
2019-03-24T23:48:24.769Z,8.15
2019-03-24T23:50:52.125Z,8.12
2019-03-24T23:53:19.485Z,8.08
2019-03-24T23:55:46.827Z,8.04
2019-03-24T23:58:14.212Z,7.99
